createdAt,value
2023-03-30T00:01:19.009Z,5.73
2023-03-30T00:03:50.224Z,5.71
2023-03-30T00:06:23.157Z,5.69
2023-03-30T00:08:53.785Z,5.68
2023-03-30T00:11:23.513Z,5.68
2023-03-30T00:13:52.169Z,5.69
2023-03-30T00:16:20.450Z,5.73
2023-03-30T00:18:48.774Z,5.77
2023-03-30T00:21:18.515Z,5.81
2023-03-30T00:23:48.177Z,5.84
2023-03-30T00:26:16.505Z,5.84
2023-03-30T00:28:45.259Z,5.83
2023-03-30T00:31:14.382Z,5.83
2023-03-30T00:33:47.179Z,5.80
2023-03-30T00:36:17.916Z,5.78
2023-03-30T00:38:48.553Z,5.76
2023-03-30T00:41:17.921Z,5.73
2023-03-30T00:43:59.614Z,5.70
2023-03-30T00:46:31.093Z,5.67
2023-03-30T00:49:08.801Z,5.65
2023-03-30T00:51:38.390Z,5.62
2023-03-30T00:54:09.833Z,5.61
2023-03-30T00:56:39.833Z,5.60
2023-03-30T00:59:09.298Z,5.58
2023-03-30T01:01:40.488Z,5.57
2023-03-30T01:04:10.225Z,5.57
2023-03-30T01:06:40.560Z,5.58
2023-03-30T01:09:09.189Z,5.56
2023-03-30T01:11:40.580Z,5.57
2023-03-30T01:14:10.255Z,5.56
2023-03-30T01:17:01.771Z,5.56
2023-03-30T01:19:33.699Z,5.55
2023-03-30T01:22:14.976Z,5.56
2023-03-30T01:25:03.991Z,5.60
2023-03-30T01:27:46.579Z,5.65
2023-03-30T01:30:21.066Z,5.71
2023-03-30T01:33:36.857Z,5.75
2023-03-30T01:36:20.923Z,5.79
2023-03-30T01:39:10.063Z,5.79
2023-03-30T01:41:58.172Z,5.77
2023-03-30T01:44:34.479Z,5.76
2023-03-30T01:47:14.808Z,5.76
2023-03-30T01:50:01.882Z,5.76
2023-03-30T01:53:01.495Z,5.77
2023-03-30T01:55:38.501Z,5.76
2023-03-30T01:58:10.745Z,5.75
2023-03-30T02:00:41.428Z,5.75
2023-03-30T02:03:14.194Z,5.75
2023-03-30T02:05:42.785Z,5.74
2023-03-30T02:08:20.867Z,5.71
2023-03-30T02:10:50.590Z,5.69
2023-03-30T02:13:19.611Z,5.66
2023-03-30T02:16:03.875Z,5.65
2023-03-30T02:18:32.872Z,5.65
2023-03-30T02:21:02.492Z,5.66
2023-03-30T02:23:35.090Z,5.66
2023-03-30T02:26:04.851Z,5.68
2023-03-30T02:28:35.398Z,5.70
2023-03-30T02:31:04.418Z,5.75
2023-03-30T02:33:36.137Z,5.82
2023-03-30T02:36:13.699Z,5.87
2023-03-30T02:38:45.914Z,5.89
2023-03-30T02:41:21.284Z,5.92
2023-03-30T02:43:49.976Z,5.93
2023-03-30T02:46:36.684Z,5.89
2023-03-30T02:49:44.112Z,5.87
2023-03-30T02:52:19.961Z,5.83
2023-03-30T02:54:55.207Z,5.80
2023-03-30T02:58:03.919Z,5.76
2023-03-30T03:01:03.574Z,5.74
2023-03-30T03:03:46.476Z,5.74
2023-03-30T03:06:15.652Z,5.72
2023-03-30T03:08:52.036Z,5.69
2023-03-30T03:11:23.620Z,5.68
2023-03-30T03:13:52.545Z,5.67
2023-03-30T03:16:21.053Z,5.65
2023-03-30T03:19:09.900Z,5.63
2023-03-30T03:21:42.982Z,5.63
2023-03-30T03:24:13.962Z,5.60
2023-03-30T03:27:01.250Z,5.60
2023-03-30T03:29:30.774Z,5.59
2023-03-30T03:31:59.318Z,5.60
2023-03-30T03:34:32.907Z,5.60
2023-03-30T03:37:05.893Z,5.58
2023-03-30T03:39:37.326Z,5.57
2023-03-30T03:42:08.663Z,5.58
2023-03-30T03:44:42.608Z,5.61
2023-03-30T03:47:16.373Z,5.64
2023-03-30T03:49:45.160Z,5.65
2023-03-30T03:52:14.180Z,5.65
2023-03-30T03:54:43.031Z,5.62
2023-03-30T03:57:15.340Z,5.63
2023-03-30T03:59:43.744Z,5.63
2023-03-30T04:02:14.865Z,5.65
2023-03-30T04:04:43.173Z,5.69
2023-03-30T04:07:11.946Z,5.71
2023-03-30T04:09:40.643Z,5.73
2023-03-30T04:12:42.503Z,5.74
2023-03-30T04:15:25.541Z,5.74
2023-03-30T04:18:16.900Z,5.73
2023-03-30T04:21:07.569Z,5.72
2023-03-30T04:24:05.515Z,5.70
2023-03-30T04:26:52.381Z,5.68
2023-03-30T04:29:29.947Z,5.67
2023-03-30T04:32:21.168Z,5.68
2023-03-30T04:35:14.476Z,5.70
2023-03-30T04:38:10.565Z,5.73
2023-03-30T04:40:53.176Z,5.75
2023-03-30T04:43:44.847Z,5.79
2023-03-30T04:46:31.934Z,5.83
2023-03-30T04:49:37.773Z,5.86
2023-03-30T04:52:41.168Z,5.89
2023-03-30T04:55:30.960Z,5.89
2023-03-30T04:58:26.265Z,5.88
2023-03-30T05:01:17.574Z,5.83
2023-03-30T05:04:04.336Z,5.80
2023-03-30T05:06:51.520Z,5.81
2023-03-30T05:09:38.281Z,5.82
2023-03-30T05:12:21.902Z,5.84
2023-03-30T05:15:13.271Z,5.87
2023-03-30T05:17:54.487Z,5.89
2023-03-30T05:20:44.682Z,5.90
2023-03-30T05:23:45.168Z,5.89
2023-03-30T05:26:51.463Z,5.86
2023-03-30T05:29:25.840Z,5.85
2023-03-30T05:32:12.448Z,5.85
2023-03-30T05:35:05.818Z,5.87
2023-03-30T05:37:54.384Z,5.89
2023-03-30T05:40:53.372Z,5.93
2023-03-30T05:43:51.353Z,5.95
2023-03-30T05:46:32.295Z,5.95
2023-03-30T05:49:21.028Z,5.96
2023-03-30T05:52:09.226Z,5.97
2023-03-30T05:55:00.151Z,6.00
2023-03-30T05:57:38.692Z,6.12
2023-03-30T06:00:34.743Z,6.33
2023-03-30T06:03:14.875Z,6.56
2023-03-30T06:05:44.329Z,6.83
2023-03-30T06:08:13.663Z,7.14
2023-03-30T06:10:52.614Z,7.47
2023-03-30T06:13:21.085Z,7.76
2023-03-30T06:16:02.938Z,8.03
2023-03-30T06:18:32.078Z,8.27
2023-03-30T06:21:08.869Z,8.44
2023-03-30T06:24:11.113Z,8.70
2023-03-30T06:26:41.329Z,8.90
2023-03-30T06:29:10.212Z,9.06
2023-03-30T06:31:41.572Z,9.17
2023-03-30T06:34:28.797Z,9.17
2023-03-30T06:36:57.473Z,9.13
2023-03-30T06:39:26.372Z,9.16
2023-03-30T06:41:55.089Z,9.18
2023-03-30T06:44:38.105Z,9.17
2023-03-30T06:47:12.199Z,9.21
2023-03-30T06:49:41.109Z,9.24
2023-03-30T06:52:27.991Z,9.30
2023-03-30T06:54:57.202Z,9.34
2023-03-30T06:57:25.566Z,9.38
2023-03-30T06:59:54.493Z,9.50
2023-03-30T07:02:22.910Z,9.70
2023-03-30T07:05:18.563Z,9.86
2023-03-30T07:08:14.630Z,9.98
2023-03-30T07:10:48.793Z,10.04
2023-03-30T07:13:17.696Z,10.09
2023-03-30T07:15:48.218Z,10.16
2023-03-30T07:18:16.524Z,10.12
2023-03-30T07:20:47.754Z,10.12
2023-03-30T07:23:18.311Z,10.16
2023-03-30T07:25:47.300Z,10.19
2023-03-30T07:28:24.306Z,10.21
2023-03-30T07:30:53.060Z,10.22
2023-03-30T07:33:22.465Z,10.16
2023-03-30T07:35:50.898Z,10.09
2023-03-30T07:38:23.062Z,10.00
2023-03-30T07:40:54.886Z,9.94
2023-03-30T07:43:24.673Z,9.85
2023-03-30T07:45:56.819Z,9.76
2023-03-30T07:48:36.995Z,9.67
2023-03-30T07:51:10.173Z,9.61
2023-03-30T07:53:44.814Z,9.57
2023-03-30T07:56:20.047Z,9.53
2023-03-30T07:58:51.584Z,9.48
2023-03-30T08:01:21.275Z,9.44
2023-03-30T08:03:52.651Z,9.35
2023-03-30T08:06:21.134Z,9.29
2023-03-30T08:08:49.850Z,9.25
2023-03-30T08:11:18.293Z,9.21
2023-03-30T08:13:48.049Z,9.19
2023-03-30T08:16:16.872Z,9.21
2023-03-30T08:18:47.395Z,9.24
2023-03-30T08:21:17.084Z,9.27
2023-03-30T08:23:45.254Z,9.30
2023-03-30T08:26:17.057Z,9.38
2023-03-30T08:28:45.287Z,9.46
2023-03-30T08:31:13.455Z,9.51
2023-03-30T08:33:42.442Z,9.54
2023-03-30T08:36:12.793Z,9.55
2023-03-30T08:38:46.427Z,9.58
2023-03-30T08:41:24.552Z,9.56
2023-03-30T08:43:57.481Z,9.57
2023-03-30T08:46:26.005Z,9.61
2023-03-30T08:48:54.702Z,9.61
2023-03-30T08:51:25.671Z,9.62
2023-03-30T08:54:01.756Z,9.62
2023-03-30T08:56:34.496Z,9.64
2023-03-30T08:59:04.159Z,9.67
2023-03-30T09:01:41.237Z,9.70
2023-03-30T09:04:30.641Z,9.75
2023-03-30T09:07:02.629Z,9.81
2023-03-30T09:09:32.460Z,9.83
2023-03-30T09:12:13.350Z,9.86
2023-03-30T09:14:44.547Z,9.91
2023-03-30T09:17:29.199Z,9.95
2023-03-30T09:20:23.836Z,9.98
2023-03-30T09:22:53.442Z,10.03
2023-03-30T09:25:26.767Z,10.10
2023-03-30T09:28:17.862Z,10.18
2023-03-30T09:31:09.234Z,10.24
2023-03-30T09:33:45.405Z,10.29
2023-03-30T09:36:16.165Z,10.30
2023-03-30T09:38:50.509Z,10.25
2023-03-30T09:41:43.922Z,10.20
2023-03-30T09:44:40.276Z,10.22
2023-03-30T09:47:36.896Z,10.25
2023-03-30T09:50:10.586Z,10.27
2023-03-30T09:52:40.704Z,10.29
2023-03-30T09:55:21.744Z,10.34
2023-03-30T09:57:53.862Z,10.42
2023-03-30T10:00:27.911Z,10.49
2023-03-30T10:03:22.990Z,10.55
2023-03-30T10:06:04.917Z,10.59
2023-03-30T10:08:36.822Z,10.66
2023-03-30T10:11:06.771Z,10.74
2023-03-30T10:13:41.581Z,10.82
2023-03-30T10:16:19.484Z,10.87
2023-03-30T10:18:48.140Z,10.91
2023-03-30T10:21:18.826Z,10.96
2023-03-30T10:23:58.813Z,11.03
2023-03-30T10:26:28.417Z,11.08
2023-03-30T10:29:01.255Z,11.09
2023-03-30T10:31:37.016Z,11.08
2023-03-30T10:34:08.106Z,11.07
2023-03-30T10:36:39.154Z,11.06
2023-03-30T10:39:18.018Z,11.05
2023-03-30T10:41:46.333Z,11.06
2023-03-30T10:44:26.376Z,11.08
2023-03-30T10:47:09.833Z,11.11
2023-03-30T10:50:16.951Z,11.17
2023-03-30T10:52:58.420Z,11.24
2023-03-30T10:55:49.105Z,11.28
2023-03-30T10:58:24.077Z,11.32
2023-03-30T11:01:08.618Z,11.33
2023-03-30T11:03:38.518Z,11.32
2023-03-30T11:06:12.263Z,11.32
2023-03-30T11:08:41.823Z,11.35
2023-03-30T11:11:14.034Z,11.42
2023-03-30T11:13:43.140Z,11.46
2023-03-30T11:16:21.359Z,11.48
2023-03-30T11:18:58.638Z,11.44
2023-03-30T11:21:28.723Z,11.41
2023-03-30T11:23:57.699Z,11.38
2023-03-30T11:26:39.073Z,11.37
2023-03-30T11:30:01.570Z,11.41
2023-03-30T11:32:44.922Z,11.48
2023-03-30T11:35:54.231Z,11.53
2023-03-30T11:38:39.837Z,11.59
2023-03-30T11:41:15.002Z,11.62
2023-03-30T11:43:45.723Z,11.66
2023-03-30T11:46:21.943Z,11.68
2023-03-30T11:49:15.378Z,11.70
2023-03-30T11:52:17.345Z,11.75
2023-03-30T11:55:20.175Z,11.84
2023-03-30T11:58:25.388Z,11.95
2023-03-30T12:01:14.669Z,12.09
2023-03-30T12:03:49.218Z,12.22
2023-03-30T12:06:23.546Z,12.32
2023-03-30T12:09:06.561Z,12.39
2023-03-30T12:12:18.078Z,12.46
2023-03-30T12:15:04.231Z,12.53
2023-03-30T12:18:07.147Z,12.58
2023-03-30T12:20:52.823Z,12.62
2023-03-30T12:24:00.692Z,12.63
2023-03-30T12:26:34.359Z,12.66
2023-03-30T12:29:44.408Z,12.67
2023-03-30T12:31:56.894Z,12.69
2023-03-30T12:34:29.726Z,12.71
2023-03-30T12:37:10.304Z,12.70
2023-03-30T12:40:00.355Z,12.70
2023-03-30T12:42:35.648Z,12.68
2023-03-30T12:45:04.229Z,12.65
2023-03-30T12:48:03.096Z,12.62
2023-03-30T12:51:01.768Z,12.57
2023-03-30T12:53:48.883Z,12.54
2023-03-30T12:56:26.586Z,12.53
2023-03-30T12:58:59.372Z,12.54
2023-03-30T13:01:59.334Z,12.53
2023-03-30T13:04:38.723Z,12.52
2023-03-30T13:07:08.764Z,12.53
2023-03-30T13:10:00.159Z,12.52
2023-03-30T13:12:38.283Z,12.52
2023-03-30T13:15:16.349Z,12.53
2023-03-30T13:18:05.235Z,12.50
2023-03-30T13:21:04.368Z,12.47
2023-03-30T13:23:34.214Z,12.45
2023-03-30T13:26:08.034Z,12.43
2023-03-30T13:28:55.077Z,12.41
2023-03-30T13:31:41.022Z,12.39
2023-03-30T13:34:36.270Z,12.36
2023-03-30T13:37:11.997Z,12.35
2023-03-30T13:39:54.481Z,12.34
2023-03-30T13:42:25.830Z,12.33
2023-03-30T13:45:15.103Z,12.32
2023-03-30T13:48:06.194Z,12.29
2023-03-30T13:50:35.485Z,12.28
2023-03-30T13:53:08.642Z,12.27
2023-03-30T13:55:42.394Z,12.24
2023-03-30T13:58:16.972Z,12.23
2023-03-30T14:00:50.885Z,12.22
2023-03-30T14:03:30.080Z,12.20
2023-03-30T14:06:08.742Z,12.20
2023-03-30T14:08:38.855Z,12.21
2023-03-30T14:11:14.250Z,12.22
2023-03-30T14:13:46.231Z,12.22
2023-03-30T14:16:19.185Z,12.23
2023-03-30T14:18:48.040Z,12.23
2023-03-30T14:21:18.986Z,12.24
2023-03-30T14:23:55.895Z,12.26
2023-03-30T14:26:26.730Z,12.27
2023-03-30T14:28:56.665Z,12.28
2023-03-30T14:31:38.150Z,12.30
2023-03-30T14:34:21.633Z,12.31
2023-03-30T14:36:49.756Z,12.34
2023-03-30T14:39:18.693Z,12.36
2023-03-30T14:41:47.660Z,12.39
2023-03-30T14:44:16.612Z,12.42
2023-03-30T14:46:47.284Z,12.44
2023-03-30T14:49:21.427Z,12.47
2023-03-30T14:51:52.364Z,12.50
2023-03-30T14:54:23.518Z,12.52
2023-03-30T14:56:59.062Z,12.53
2023-03-30T14:59:31.818Z,12.54
2023-03-30T15:02:00.769Z,12.54
2023-03-30T15:04:33.235Z,12.53
2023-03-30T15:07:01.475Z,12.53
2023-03-30T15:09:35.454Z,12.51
2023-03-30T15:12:04.480Z,12.52
2023-03-30T15:14:36.263Z,12.52
2023-03-30T15:17:12.131Z,12.56
2023-03-30T15:19:40.513Z,12.60
2023-03-30T15:22:25.804Z,12.61
2023-03-30T15:24:58.288Z,12.61
2023-03-30T15:27:27.634Z,12.63
2023-03-30T15:29:55.968Z,12.66
2023-03-30T15:32:29.808Z,12.68
2023-03-30T15:35:01.143Z,12.70
2023-03-30T15:37:30.970Z,12.73
2023-03-30T15:39:59.215Z,12.75
2023-03-30T15:42:32.515Z,12.77
2023-03-30T15:45:09.538Z,12.78
2023-03-30T15:47:40.041Z,12.78
2023-03-30T15:50:12.563Z,12.79
2023-03-30T15:52:44.822Z,12.80
2023-03-30T15:55:24.800Z,12.80
2023-03-30T15:57:53.501Z,12.80
2023-03-30T16:00:31.477Z,12.79
2023-03-30T16:03:01.668Z,12.78
2023-03-30T16:05:32.697Z,12.76
2023-03-30T16:08:01.046Z,12.72
2023-03-30T16:10:32.654Z,12.68
2023-03-30T16:13:02.851Z,12.64
2023-03-30T16:15:31.793Z,12.60
2023-03-30T16:18:00.685Z,12.55
2023-03-30T16:20:31.884Z,12.50
2023-03-30T16:23:00.170Z,12.44
2023-03-30T16:28:00.021Z,12.34
2023-03-30T16:30:35.626Z,12.28
2023-03-30T16:33:04.696Z,12.23
2023-03-30T16:35:33.199Z,12.17
2023-03-30T16:38:01.469Z,12.12
2023-03-30T16:40:55.435Z,12.07
2023-03-30T16:43:24.345Z,12.01
2023-03-30T16:45:53.416Z,11.97
2023-03-30T16:48:27.468Z,11.91
2023-03-30T16:50:58.977Z,11.86
2023-03-30T16:53:28.314Z,11.82
2023-03-30T16:55:56.703Z,11.77
2023-03-30T16:58:26.407Z,11.72
2023-03-30T17:00:56.419Z,11.69
2023-03-30T17:03:26.282Z,11.64
2023-03-30T17:06:00.741Z,11.59
2023-03-30T17:08:29.925Z,11.55
2023-03-30T17:11:01.108Z,11.50
2023-03-30T17:13:37.084Z,11.46
2023-03-30T17:16:27.556Z,11.41
2023-03-30T17:19:01.120Z,11.36
2023-03-30T17:21:30.006Z,11.33
2023-03-30T17:23:58.329Z,11.28
2023-03-30T17:26:28.694Z,11.23
2023-03-30T17:28:57.842Z,11.19
2023-03-30T17:31:27.788Z,11.15
2023-03-30T17:33:57.050Z,11.10
2023-03-30T17:36:26.054Z,11.07
2023-03-30T17:39:00.035Z,11.02
2023-03-30T17:41:28.381Z,10.98
2023-03-30T17:43:56.612Z,10.94
2023-03-30T17:46:24.865Z,10.90
2023-03-30T17:48:53.085Z,10.86
2023-03-30T17:51:21.304Z,10.83
2023-03-30T17:53:49.658Z,10.79
2023-03-30T17:56:19.971Z,10.75
2023-03-30T17:58:49.757Z,10.71
2023-03-30T18:01:18.083Z,10.67
2023-03-30T18:03:47.730Z,10.63
2023-03-30T18:06:16.474Z,10.60
2023-03-30T18:08:44.631Z,10.58
2023-03-30T18:11:13.181Z,10.55
2023-03-30T18:13:41.639Z,10.52
2023-03-30T18:16:12.682Z,10.50
2023-03-30T18:18:42.511Z,10.48
2023-03-30T18:21:11.127Z,10.45
2023-03-30T18:23:43.009Z,10.42
2023-03-30T18:26:12.988Z,10.39
2023-03-30T18:28:44.397Z,10.36
2023-03-30T18:31:13.072Z,10.34
2023-03-30T18:33:41.550Z,10.30
2023-03-30T18:36:13.398Z,10.28
2023-03-30T18:38:42.531Z,10.25
2023-03-30T18:41:13.248Z,10.23
2023-03-30T18:43:42.839Z,10.21
2023-03-30T18:46:11.673Z,10.19
2023-03-30T18:48:41.857Z,10.17
2023-03-30T18:51:11.929Z,10.15
2023-03-30T18:53:42.872Z,10.14
2023-03-30T18:56:12.548Z,10.11
2023-03-30T18:58:42.242Z,10.09
2023-03-30T19:01:16.202Z,10.07
2023-03-30T19:03:45.350Z,10.04
2023-03-30T19:06:16.081Z,10.01
2023-03-30T19:08:45.064Z,9.97
2023-03-30T19:11:16.353Z,9.95
2023-03-30T19:13:44.825Z,9.90
2023-03-30T19:16:16.750Z,9.86
2023-03-30T19:18:45.814Z,9.82
2023-03-30T19:21:15.473Z,9.78
2023-03-30T19:23:43.834Z,9.75
2023-03-30T19:26:12.877Z,9.71
2023-03-30T19:28:41.375Z,9.68
2023-03-30T19:31:13.650Z,9.65
2023-03-30T19:33:42.272Z,9.62
2023-03-30T19:36:10.684Z,9.58
2023-03-30T19:38:39.082Z,9.56
2023-03-30T19:41:07.649Z,9.53
2023-03-30T19:43:36.891Z,9.50
2023-03-30T19:46:06.149Z,9.47
2023-03-30T19:48:35.009Z,9.44
2023-03-30T19:51:03.800Z,9.41
2023-03-30T19:53:38.152Z,9.38
2023-03-30T19:56:11.187Z,9.36
2023-03-30T19:58:39.449Z,9.34
2023-03-30T20:01:08.339Z,9.32
2023-03-30T20:03:37.960Z,9.30
2023-03-30T20:06:15.134Z,9.28
2023-03-30T20:08:43.591Z,9.27
2023-03-30T20:11:12.674Z,9.24
2023-03-30T20:13:45.894Z,9.23
2023-03-30T20:16:20.599Z,9.20
2023-03-30T20:18:51.418Z,9.19
2023-03-30T20:21:25.133Z,9.18
2023-03-30T20:23:58.680Z,9.16
2023-03-30T20:26:29.297Z,9.13
2023-03-30T20:29:00.985Z,9.11
2023-03-30T20:31:29.683Z,9.09
2023-03-30T20:36:28.927Z,9.04
2023-03-30T20:39:01.264Z,9.02
2023-03-30T20:41:38.195Z,9.00
2023-03-30T20:44:13.411Z,8.98
2023-03-30T20:46:43.656Z,8.96
2023-03-30T20:49:12.358Z,8.94
2023-03-30T20:51:43.365Z,8.92
2023-03-30T20:54:11.969Z,8.90
2023-03-30T20:56:41.352Z,8.88
2023-03-30T20:59:09.784Z,8.86
2023-03-30T21:01:41.000Z,8.84
2023-03-30T21:04:09.697Z,8.82
2023-03-30T21:06:37.900Z,8.80
2023-03-30T21:09:10.103Z,8.79
2023-03-30T21:11:41.439Z,8.77
2023-03-30T21:14:13.031Z,8.76
2023-03-30T21:16:44.745Z,8.75
2023-03-30T21:19:12.806Z,8.74
2023-03-30T21:21:47.191Z,8.72
2023-03-30T21:24:16.971Z,8.70
2023-03-30T21:26:45.732Z,8.68
2023-03-30T21:29:17.924Z,8.67
2023-03-30T21:31:46.543Z,8.66
2023-03-30T21:34:15.928Z,8.65
2023-03-30T21:36:44.678Z,8.63
2023-03-30T21:39:13.179Z,8.62
2023-03-30T21:41:41.783Z,8.60
2023-03-30T21:44:10.503Z,8.58
2023-03-30T21:46:38.887Z,8.57
2023-03-30T21:49:07.241Z,8.55
2023-03-30T21:51:35.721Z,8.54
2023-03-30T21:54:05.308Z,8.52
2023-03-30T21:56:33.594Z,8.52
2023-03-30T21:59:01.843Z,8.50
2023-03-30T22:01:30.592Z,8.49
2023-03-30T22:03:59.042Z,8.48
2023-03-30T22:06:27.506Z,8.48
2023-03-30T22:08:55.755Z,8.48
2023-03-30T22:11:25.492Z,8.48
2023-03-30T22:13:55.743Z,8.48
2023-03-30T22:16:28.363Z,8.47
2023-03-30T22:18:57.261Z,8.47
2023-03-30T22:21:29.351Z,8.46
2023-03-30T22:23:57.754Z,8.45
2023-03-30T22:26:27.461Z,8.45
2023-03-30T22:28:56.350Z,8.44
2023-03-30T22:31:27.947Z,8.43
2023-03-30T22:33:57.471Z,8.42
2023-03-30T22:36:30.130Z,8.41
2023-03-30T22:39:04.200Z,8.40
2023-03-30T22:41:32.981Z,8.39
2023-03-30T22:44:01.269Z,8.38
2023-03-30T22:46:30.058Z,8.36
2023-03-30T22:49:00.273Z,8.36
2023-03-30T22:51:29.029Z,8.34
2023-03-30T22:53:58.835Z,8.34
2023-03-30T22:56:32.152Z,8.32
2023-03-30T22:59:02.168Z,8.32
2023-03-30T23:01:32.553Z,8.31
2023-03-30T23:04:03.428Z,8.31
2023-03-30T23:06:34.468Z,8.29
2023-03-30T23:09:03.903Z,8.28
2023-03-30T23:11:34.340Z,8.28
2023-03-30T23:14:06.144Z,8.27
2023-03-30T23:16:36.096Z,8.26
2023-03-30T23:19:05.637Z,8.25
2023-03-30T23:21:34.856Z,8.24
2023-03-30T23:24:04.620Z,8.23
2023-03-30T23:26:35.618Z,8.21
2023-03-30T23:29:04.528Z,8.20
2023-03-30T23:31:34.993Z,8.18
2023-03-30T23:34:03.291Z,8.17
2023-03-30T23:36:31.530Z,8.17
2023-03-30T23:38:59.777Z,8.16
2023-03-30T23:41:29.169Z,8.16
2023-03-30T23:43:58.671Z,8.16
2023-03-30T23:46:27.046Z,8.16
2023-03-30T23:48:55.983Z,8.16
2023-03-30T23:51:25.457Z,8.16
2023-03-30T23:54:00.254Z,8.16
2023-03-30T23:56:30.065Z,8.16
2023-03-30T23:58:59.376Z,8.17
